Weather at George Bush Intercontinental Houston Airport

Public forecast

Using degrees Fahrenheit for public forecast. Weather courtesy of forecast.io.

Current aviation weather report (METAR) for George Bush Intercontinental Houston Airport

Retrieved 2021/07/28 23:53 UTC (11 minutes ago):

KIAH 282353Z 12005KT 10SM FEW048 FEW250 33/22 A2994 RMK AO2 SLP138 T03330217 10356 20328 58015

Aviation forecast (TAF) for George Bush Intercontinental Houston Airport

Retrieved 2021-07-29 00:22 UTC (0 seconds ago):

TAF KIAH 282320Z 2900/3006 10006KT P6SM FEW050 SCT250 FM290500 VRB03KT P6SM FEW040 SCT250 FM291500 12006KT P6SM SCT050 SCT250 FM300400 VRB04KT P6SM SCT050